Time;durP1;ratioP1;P1;durP2;ratioP2;P2;SDS_P1;SDS_P2;PMS_P1;PMS_P2;Temp;Humidity;BMP_temperature;BMP_pressure;BME280_temperature;BME280_humidity;BME280_pressure;Samples;Min_cycle;Max_cycle;Signal;HPM_P1;HPM_P2
2022/03/05 00:00:16;;;;;;;9.20;5.77;;;1.40;70.80;;;;;;5089676;28;20304;-75
2022/03/05 00:02:42;;;;;;;8.37;5.30;;;1.40;71.00;;;;;;5089510;28;20451;-75
2022/03/05 00:05:08;;;;;;;15.20;6.57;;;1.40;71.60;;;;;;5089845;28;20979;-74
2022/03/05 00:07:34;;;;;;;11.63;6.78;;;1.40;71.60;;;;;;5089458;28;20220;-75
2022/03/05 00:09:59;;;;;;;6.43;5.10;;;1.40;72.40;;;;;;5088220;28;20267;-75
2022/03/05 00:12:25;;;;;;;8.03;5.70;;;1.30;72.10;;;;;;5071314;28;20200;-74
2022/03/05 00:14:50;;;;;;;9.40;5.93;;;1.30;72.50;;;;;;5087803;28;20175;-75
2022/03/05 00:17:16;;;;;;;8.93;6.20;;;1.30;72.70;;;;;;5089347;28;20177;-75
2022/03/05 00:19:42;;;;;;;9.67;5.40;;;1.30;72.90;;;;;;5089226;28;20196;-75
2022/03/05 00:22:07;;;;;;;7.57;5.57;;;1.30;72.90;;;;;;5091570;28;20214;-77
2022/03/05 00:24:33;;;;;;;10.97;6.60;;;1.30;73.30;;;;;;5093497;28;20813;-77
2022/03/05 00:26:58;;;;;;;8.43;5.10;;;1.20;73.60;;;;;;5094485;28;20264;-77
2022/03/05 00:29:25;;;;;;;10.10;5.80;;;1.20;73.50;;;;;;5092997;28;20165;-76
2022/03/05 00:31:50;;;;;;;8.35;5.55;;;1.30;73.80;;;;;;5093622;28;20263;-77
2022/03/05 00:34:16;;;;;;;9.80;5.80;;;1.20;74.20;;;;;;5093838;28;20646;-76
2022/03/05 00:36:42;;;;;;;7.37;4.83;;;1.10;74.30;;;;;;5093578;28;20191;-77
2022/03/05 00:39:08;;;;;;;7.40;4.87;;;1.10;74.40;;;;;;5092164;28;20188;-76
2022/03/05 00:41:33;;;;;;;10.33;5.83;;;1.10;74.80;;;;;;5093708;28;20314;-76
2022/03/05 00:43:59;;;;;;;11.83;6.07;;;1.10;74.70;;;;;;5093603;28;20280;-74
2022/03/05 00:46:26;;;;;;;8.90;5.80;;;1.10;74.80;;;;;;5094057;28;20209;-74
2022/03/05 00:48:52;;;;;;;13.07;5.13;;;1.10;75.00;;;;;;5094679;28;20456;-74
2022/03/05 00:51:18;;;;;;;6.75;4.65;;;1.10;75.10;;;;;;5094255;28;20638;-75
2022/03/05 00:53:44;;;;;;;9.63;5.10;;;1.10;75.60;;;;;;5094339;28;20191;-74
2022/03/05 00:56:10;;;;;;;7.90;6.00;;;1.00;76.20;;;;;;5095100;28;21227;-74
2022/03/05 00:58:35;;;;;;;7.77;5.50;;;1.10;76.30;;;;;;5094065;28;20182;-74
2022/03/05 01:01:01;;;;;;;8.40;5.30;;;1.00;77.60;;;;;;5092380;28;20216;-74
2022/03/05 01:03:27;;;;;;;10.50;6.10;;;1.00;77.50;;;;;;5093844;28;20222;-74
2022/03/05 01:05:54;;;;;;;10.77;5.37;;;1.00;78.10;;;;;;5092639;28;20472;-76
2022/03/05 01:08:20;;;;;;;8.25;5.57;;;1.00;78.60;;;;;;5091852;28;20181;-77
2022/03/05 01:10:46;;;;;;;10.77;6.43;;;1.20;79.30;;;;;;5093416;28;20243;-74
2022/03/05 01:13:12;;;;;;;13.10;6.33;;;0.90;79.30;;;;;;5074027;28;20414;-74
2022/03/05 01:15:37;;;;;;;10.47;6.40;;;0.90;80.10;;;;;;5092284;28;20203;-74
2022/03/05 01:18:03;;;;;;;11.13;7.07;;;0.90;80.10;;;;;;5090561;28;20425;-75
2022/03/05 01:20:29;;;;;;;10.70;5.57;;;0.90;79.10;;;;;;5091899;28;20191;-76
2022/03/05 01:22:54;;;;;;;10.30;6.17;;;0.90;78.80;;;;;;5092072;28;20564;-76
2022/03/05 01:25:20;;;;;;;11.03;5.97;;;0.90;78.40;;;;;;5091915;28;20516;-74
2022/03/05 01:27:46;;;;;;;14.20;6.80;;;0.90;78.40;;;;;;5091721;28;20638;-75
2022/03/05 01:30:12;;;;;;;13.13;6.17;;;0.90;78.50;;;;;;5090004;28;20184;-74
2022/03/05 01:32:38;;;;;;;14.35;6.28;;;0.80;78.60;;;;;;5089335;28;20327;-73
2022/03/05 01:35:04;;;;;;;13.13;5.90;;;0.90;79.00;;;;;;5091636;28;20268;-75
2022/03/05 01:37:30;;;;;;;7.70;5.63;;;0.80;79.30;;;;;;5091359;28;20191;-74
2022/03/05 01:39:56;;;;;;;7.73;5.37;;;0.90;79.40;;;;;;5091463;28;20243;-74
2022/03/05 01:42:24;;;;;;;9.75;5.68;;;0.80;78.80;;;;;;5091168;28;20534;-74
2022/03/05 01:44:50;;;;;;;8.95;5.40;;;0.80;78.90;;;;;;5090924;28;20187;-74
2022/03/05 01:47:16;;;;;;;11.43;6.70;;;0.80;79.50;;;;;;5091208;28;20182;-75
2022/03/05 01:49:42;;;;;;;11.25;5.70;;;0.80;79.80;;;;;;5090994;28;20500;-75
2022/03/05 01:52:08;;;;;;;7.30;5.23;;;0.90;80.30;;;;;;5089339;28;20296;-76
2022/03/05 01:54:34;;;;;;;9.70;6.13;;;0.70;80.90;;;;;;5091024;28;20948;-74
2022/03/05 01:57:00;;;;;;;9.02;5.82;;;0.70;81.30;;;;;;5090954;28;20477;-74
2022/03/05 01:59:26;;;;;;;12.63;6.30;;;0.70;82.20;;;;;;5090811;28;20175;-74
2022/03/05 02:01:52;;;;;;;16.43;7.57;;;0.70;82.70;;;;;;5090587;28;20704;-76
2022/03/05 02:04:18;;;;;;;11.17;7.10;;;0.60;82.70;;;;;;5090574;28;20477;-75
2022/03/05 02:06:44;;;;;;;12.47;6.60;;;0.60;83.10;;;;;;5089181;28;20214;-74
2022/03/05 02:09:09;;;;;;;10.67;6.40;;;0.60;83.20;;;;;;5090620;28;20550;-73
2022/03/05 02:11:35;;;;;;;10.00;6.23;;;0.60;83.30;;;;;;5092440;28;20933;-73
2022/03/05 02:14:01;;;;;;;13.63;7.03;;;0.60;83.60;;;;;;5092707;28;20188;-73
2022/03/05 02:16:27;;;;;;;11.77;7.00;;;0.50;83.70;;;;;;5090833;28;20305;-74
2022/03/05 02:18:57;;;;;;;11.80;6.70;;;0.50;84.00;;;;;;5092200;28;20235;-74
2022/03/05 02:21:27;;;;;;;10.07;5.90;;;0.50;83.90;;;;;;5091446;28;20535;-75
2022/03/05 02:23:54;;;;;;;8.75;5.80;;;0.50;84.00;;;;;;5091287;28;20181;-75
2022/03/05 02:26:21;;;;;;;13.23;7.55;;;0.50;84.20;;;;;;5091388;28;20216;-75
2022/03/05 02:28:47;;;;;;;12.48;7.32;;;0.60;84.10;;;;;;5090393;28;20200;-76
2022/03/05 02:31:13;;;;;;;13.87;7.17;;;0.50;84.20;;;;;;5093172;28;20204;-76
2022/03/05 02:33:39;;;;;;;11.88;6.85;;;0.50;84.60;;;;;;5092378;28;20413;-76
2022/03/05 02:36:05;;;;;;;10.95;7.15;;;0.50;84.90;;;;;;5093063;28;20272;-75
2022/03/05 02:38:31;;;;;;;12.20;7.82;;;0.40;85.20;;;;;;5091547;28;20828;-74
2022/03/05 02:40:57;;;;;;;11.17;7.00;;;0.40;85.60;;;;;;5092064;28;20216;-73
2022/03/05 02:43:23;;;;;;;11.80;7.33;;;0.40;85.60;;;;;;5092217;28;20214;-72
2022/03/05 02:45:50;;;;;;;14.32;7.80;;;0.30;85.80;;;;;;5091898;28;20212;-74
2022/03/05 02:48:17;;;;;;;11.43;6.63;;;0.30;86.60;;;;;;5093267;28;20275;-74
2022/03/05 02:50:44;;;;;;;16.23;8.35;;;0.20;86.70;;;;;;5092525;28;20199;-75
2022/03/05 02:53:10;;;;;;;11.50;7.03;;;0.20;86.90;;;;;;5092614;28;20196;-75
2022/03/05 02:55:37;;;;;;;10.25;7.07;;;0.20;86.70;;;;;;5090570;28;20662;-75
2022/03/05 02:58:03;;;;;;;14.60;7.45;;;0.20;86.50;;;;;;5091715;28;20198;-76
2022/03/05 03:00:29;;;;;;;13.47;7.53;;;0.20;86.80;;;;;;5091478;28;20179;-74
2022/03/05 03:02:55;;;;;;;13.70;7.72;;;0.20;87.00;;;;;;5092131;28;20428;-74
2022/03/05 03:05:21;;;;;;;15.23;7.17;;;0.20;87.00;;;;;;5091648;28;20220;-73
2022/03/05 03:07:48;;;;;;;15.20;7.07;;;0.10;87.00;;;;;;5090883;28;20196;-75
2022/03/05 03:10:15;;;;;;;13.85;7.03;;;0.10;87.30;;;;;;5089381;28;20178;-73
2022/03/05 03:12:41;;;;;;;13.57;7.78;;;0.10;87.20;;;;;;5089030;28;20198;-76
2022/03/05 03:15:08;;;;;;;14.30;7.80;;;0.10;87.10;;;;;;5089068;28;20183;-77
2022/03/05 03:17:40;;;;;;;13.30;6.97;;;0.10;87.20;;;;;;5087573;28;20580;-76
2022/03/05 03:20:07;;;;;;;10.63;6.35;;;0.10;86.90;;;;;;5088948;28;20572;-76
2022/03/05 03:22:32;;;;;;;9.80;6.93;;;0.10;86.60;;;;;;5088700;28;20198;-76
2022/03/05 03:24:58;;;;;;;12.90;6.77;;;0.20;86.20;;;;;;5088831;28;20271;-75
2022/03/05 03:27:23;;;;;;;9.77;7.10;;;0.10;85.70;;;;;;5090565;28;20178;-75
2022/03/05 03:29:49;;;;;;;13.10;5.83;;;0.10;85.70;;;;;;5092134;28;20190;-74
2022/03/05 03:32:14;;;;;;;10.40;6.47;;;0.00;85.90;;;;;;5090718;28;20293;-74
2022/03/05 03:34:40;;;;;;;13.80;7.30;;;0.00;86.00;;;;;;5091023;28;20246;-74
2022/03/05 03:37:06;;;;;;;9.00;6.63;;;0.00;86.30;;;;;;5089728;28;20623;-75
2022/03/05 03:39:31;;;;;;;7.67;4.60;;;0.00;85.80;;;;;;5088569;28;20195;-76
2022/03/05 03:41:57;;;;;;;10.93;6.10;;;0.00;86.00;;;;;;5088589;28;20694;-75
2022/03/05 03:44:22;;;;;;;11.30;6.47;;;0.10;86.60;;;;;;5088621;28;20652;-75
2022/03/05 03:46:48;;;;;;;15.43;8.30;;;0.00;87.20;;;;;;5087008;28;20310;-76
2022/03/05 03:49:14;;;;;;;12.50;7.70;;;0.00;88.50;;;;;;5088495;28;20185;-75
2022/03/05 03:51:39;;;;;;;18.17;10.13;;;0.00;89.80;;;;;;5088392;28;20286;-76
2022/03/05 03:54:05;;;;;;;14.90;10.03;;;0.00;90.30;;;;;;5086929;28;20201;-76
2022/03/05 03:56:31;;;;;;;18.40;10.50;;;0.00;91.00;;;;;;5088339;28;20188;-74
2022/03/05 03:58:56;;;;;;;17.50;9.53;;;0.00;91.60;;;;;;5088597;28;20866;-74
2022/03/05 04:01:22;;;;;;;24.77;14.23;;;-0.10;92.40;;;;;;5069955;28;20268;-75
2022/03/05 04:03:48;;;;;;;21.40;13.53;;;-0.10;92.90;;;;;;5088483;28;20627;-73
2022/03/05 04:06:13;;;;;;;18.73;11.40;;;0.00;93.20;;;;;;5088767;28;20951;-77
2022/03/05 04:08:41;;;;;;;25.93;12.57;;;0.00;93.40;;;;;;5088975;28;20803;-77
2022/03/05 04:11:12;;;;;;;23.30;12.48;;;-0.10;93.60;;;;;;5089169;28;20627;-77
2022/03/05 04:13:38;;;;;;;20.35;12.30;;;-0.10;93.80;;;;;;5087767;28;20222;-77
2022/03/05 04:16:04;;;;;;;24.88;12.93;;;-0.10;94.00;;;;;;5070885;28;20195;-76
2022/03/05 04:18:30;;;;;;;23.98;11.48;;;-0.10;93.90;;;;;;5089513;28;20183;-74
2022/03/05 04:20:56;;;;;;;22.43;12.40;;;-0.10;94.00;;;;;;5089427;28;20213;-73
2022/03/05 04:23:21;;;;;;;19.50;11.13;;;-0.10;94.10;;;;;;5089702;28;20194;-78
2022/03/05 04:25:47;;;;;;;21.93;12.23;;;-0.10;94.00;;;;;;5094537;28;20469;-79
2022/03/05 04:28:13;;;;;;;23.23;12.30;;;-0.10;94.00;;;;;;5090350;28;20562;-79
2022/03/05 04:30:39;;;;;;;23.60;11.20;;;-0.10;93.90;;;;;;5089217;28;20678;-74
2022/03/05 04:33:04;;;;;;;19.17;11.23;;;-0.10;94.10;;;;;;5089138;28;20181;-75
2022/03/05 04:35:30;;;;;;;25.17;12.77;;;-0.10;94.20;;;;;;5088807;28;20473;-75
2022/03/05 04:37:56;;;;;;;25.20;12.47;;;-0.20;94.60;;;;;;5087294;28;20432;-74
2022/03/05 04:40:22;;;;;;;18.30;11.18;;;-0.20;94.90;;;;;;5088654;28;20186;-75
2022/03/05 04:42:49;;;;;;;24.65;11.98;;;-0.20;95.10;;;;;;5088533;28;20690;-76
2022/03/05 04:45:15;;;;;;;25.20;13.40;;;-0.20;95.20;;;;;;5088804;28;20307;-76
2022/03/05 04:47:41;;;;;;;25.10;12.05;;;-0.20;95.20;;;;;;5088746;28;20234;-70
2022/03/05 04:50:09;;;;;;;25.10;12.70;;;-0.20;95.20;;;;;;5088544;28;20704;-74
2022/03/05 04:52:34;;;;;;;23.85;13.48;;;-0.20;95.20;;;;;;5088279;28;21020;-75
2022/03/05 04:55:01;;;;;;;23.50;13.40;;;-0.20;95.10;;;;;;5088198;28;20328;-75
2022/03/05 04:57:26;;;;;;;26.23;13.40;;;-0.10;95.20;;;;;;5088224;28;20417;-75
2022/03/05 04:59:52;;;;;;;22.63;12.40;;;-0.10;95.00;;;;;;5088380;28;20549;-75
2022/03/05 05:02:18;;;;;;;23.33;11.80;;;-0.10;94.80;;;;;;5088200;28;20205;-75
2022/03/05 05:04:44;;;;;;;24.13;12.05;;;-0.10;94.70;;;;;;5088455;28;20190;-76
2022/03/05 05:07:10;;;;;;;21.53;12.10;;;-0.10;94.60;;;;;;5087389;28;20215;-77
2022/03/05 05:09:35;;;;;;;25.07;13.53;;;-0.10;94.60;;;;;;5073761;28;20420;-76
2022/03/05 05:12:01;;;;;;;21.90;11.80;;;-0.10;94.30;;;;;;5092060;28;20202;-77
2022/03/05 05:14:27;;;;;;;26.40;12.63;;;-0.10;94.50;;;;;;5091822;28;20249;-75
2022/03/05 05:16:52;;;;;;;28.80;12.60;;;-0.20;94.40;;;;;;5090290;28;20193;-76
2022/03/05 05:19:30;;;;;;;19.43;11.20;;;0.10;94.30;;;;;;5091039;28;20179;-76
2022/03/05 05:22:00;;;;;;;21.05;11.45;;;-0.10;94.10;;;;;;5075266;28;20199;-77
2022/03/05 05:24:27;;;;;;;23.33;12.30;;;-0.10;93.80;;;;;;5090370;28;20934;-77
2022/03/05 05:26:53;;;;;;;18.92;11.30;;;0.00;93.90;;;;;;5090094;28;20210;-77
2022/03/05 05:29:19;;;;;;;19.58;11.13;;;-0.20;93.90;;;;;;5091525;28;20184;-76
2022/03/05 05:31:44;;;;;;;17.33;10.10;;;-0.20;93.70;;;;;;5091368;28;20196;-76
2022/03/05 05:34:10;;;;;;;20.33;10.80;;;-0.20;93.60;;;;;;5091459;28;20179;-76
2022/03/05 05:36:38;;;;;;;23.30;11.70;;;-0.20;94.00;;;;;;5091594;28;20181;-76
2022/03/05 05:39:09;;;;;;;20.30;10.90;;;-0.20;93.80;;;;;;5092049;28;20182;-77
2022/03/05 05:41:35;;;;;;;19.65;11.35;;;-0.10;94.10;;;;;;5092256;28;20691;-75
2022/03/05 05:44:05;;;;;;;21.40;12.30;;;-0.20;94.10;;;;;;5091638;28;20195;-77
2022/03/05 05:46:31;;;;;;;20.00;12.15;;;-0.20;94.10;;;;;;5091151;28;20217;-77
2022/03/05 05:48:57;;;;;;;24.37;11.73;;;-0.20;94.20;;;;;;5089838;28;20186;-76
2022/03/05 05:51:25;;;;;;;22.35;11.85;;;-0.20;94.00;;;;;;5089990;28;20253;-77
2022/03/05 05:53:50;;;;;;;21.30;12.15;;;-0.30;93.60;;;;;;5091633;28;20209;-75
2022/03/05 05:56:16;;;;;;;19.37;10.80;;;-0.40;93.60;;;;;;5091218;28;20186;-76
2022/03/05 05:58:42;;;;;;;23.53;12.03;;;-0.50;94.20;;;;;;5090866;28;20191;-75
2022/03/05 06:01:07;;;;;;;19.47;11.50;;;-0.50;94.30;;;;;;5090877;28;20223;-76
2022/03/05 06:03:33;;;;;;;19.83;12.00;;;-0.50;94.80;;;;;;5090633;28;20275;-76
2022/03/05 06:05:59;;;;;;;22.00;11.63;;;-0.70;94.80;;;;;;5089519;28;20330;-76
2022/03/05 06:08:25;;;;;;;18.53;11.00;;;-0.70;95.30;;;;;;5091304;28;20182;-77
2022/03/05 06:10:51;;;;;;;18.85;11.00;;;-0.70;95.70;;;;;;5092923;28;20191;-77
2022/03/05 06:13:18;;;;;;;21.27;11.90;;;-0.80;95.30;;;;;;5073889;28;20664;-77
2022/03/05 06:15:44;;;;;;;22.30;12.68;;;-0.80;95.90;;;;;;5092373;28;20532;-76
2022/03/05 06:18:10;;;;;;;20.57;11.83;;;-0.90;96.10;;;;;;5089551;28;20221;-77
2022/03/05 06:20:36;;;;;;;20.58;11.80;;;-1.00;96.40;;;;;;5090877;28;20505;-76
2022/03/05 06:23:02;;;;;;;19.25;11.15;;;-1.00;96.50;;;;;;5090650;28;20650;-76
2022/03/05 06:25:27;;;;;;;20.50;11.03;;;-1.10;96.40;;;;;;5088588;28;20314;-76
2022/03/05 06:27:53;;;;;;;20.67;11.00;;;-1.10;97.10;;;;;;5089882;28;20433;-75
2022/03/05 06:30:19;;;;;;;20.57;10.70;;;-1.10;97.00;;;;;;5089919;28;20187;-73
2022/03/05 06:32:44;;;;;;;51.80;24.60;;;-1.10;97.30;;;;;;5089632;28;20278;-76
2022/03/05 06:35:11;;;;;;;40.47;19.60;;;-1.10;97.50;;;;;;5089780;28;20210;-73
2022/03/05 06:37:37;;;;;;;25.80;15.10;;;-1.10;97.40;;;;;;5089875;28;20175;-75
2022/03/05 06:40:04;;;;;;;21.17;12.93;;;-1.10;97.60;;;;;;5089856;28;20182;-76
2022/03/05 06:42:29;;;;;;;32.58;18.00;;;-0.80;98.20;;;;;;5073424;28;20222;-74
2022/03/05 06:44:55;;;;;;;28.60;17.07;;;-0.10;96.60;;;;;;5088693;28;20252;-77
2022/03/05 06:47:20;;;;;;;25.93;15.60;;;0.50;94.40;;;;;;5090625;28;20193;-77
2022/03/05 06:49:46;;;;;;;22.87;13.23;;;0.80;93.20;;;;;;5089631;28;20176;-77
2022/03/05 06:52:12;;;;;;;25.17;14.23;;;1.20;93.00;;;;;;5089924;28;20210;-76
2022/03/05 06:54:37;;;;;;;22.27;12.93;;;1.70;92.10;;;;;;5089284;28;20210;-76
2022/03/05 06:57:04;;;;;;;23.30;13.10;;;2.20;91.00;;;;;;5090975;28;20214;-77
2022/03/05 06:59:30;;;;;;;26.37;14.57;;;2.90;89.60;;;;;;5089738;28;20286;-75
2022/03/05 07:01:55;;;;;;;23.80;13.30;;;3.60;86.40;;;;;;5090139;28;20443;-77
2022/03/05 07:04:21;;;;;;;22.60;13.87;;;4.30;82.00;;;;;;5089718;28;20420;-77
2022/03/05 07:06:47;;;;;;;25.30;15.00;;;4.60;79.10;;;;;;5090686;28;20206;-77
2022/03/05 07:09:14;;;;;;;25.00;15.83;;;4.90;77.60;;;;;;5091046;28;20763;-77
2022/03/05 07:11:40;;;;;;;23.20;15.33;;;5.00;76.30;;;;;;5091637;28;20194;-77
2022/03/05 07:14:05;;;;;;;27.93;16.23;;;5.30;75.50;;;;;;5090383;28;20419;-77
2022/03/05 07:16:32;;;;;;;28.30;14.87;;;5.40;75.30;;;;;;5091288;28;20417;-77
2022/03/05 07:18:57;;;;;;;26.33;15.27;;;5.60;73.10;;;;;;5072631;28;20473;-77
2022/03/05 07:21:23;;;;;;;28.87;16.27;;;5.90;72.80;;;;;;5089905;28;20436;-77
2022/03/05 07:23:49;;;;;;;23.47;15.10;;;6.00;71.50;;;;;;5072281;28;20557;-77
2022/03/05 07:26:17;;;;;;;23.87;16.17;;;6.20;71.40;;;;;;5089637;28;20237;-77
2022/03/05 07:28:44;;;;;;;24.27;15.40;;;6.10;71.60;;;;;;5089758;28;20427;-76
2022/03/05 07:31:09;;;;;;;24.03;15.40;;;5.90;70.10;;;;;;5089153;28;20459;-76
2022/03/05 07:33:35;;;;;;;29.87;16.57;;;5.60;70.80;;;;;;5089332;28;20425;-76
2022/03/05 07:36:02;;;;;;;27.57;16.50;;;5.60;71.40;;;;;;5089349;28;20224;-76
2022/03/05 07:38:27;;;;;;;23.63;15.67;;;5.80;71.80;;;;;;5087792;28;20186;-76
2022/03/05 07:40:53;;;;;;;27.87;17.30;;;6.00;70.30;;;;;;5089505;28;20436;-75
2022/03/05 07:43:18;;;;;;;24.37;14.40;;;5.60;70.40;;;;;;5089452;28;20193;-76
2022/03/05 07:45:44;;;;;;;30.77;16.10;;;5.80;70.20;;;;;;5087810;28;20269;-76
2022/03/05 07:48:10;;;;;;;30.37;17.40;;;5.60;70.20;;;;;;5070765;28;20205;-76
2022/03/05 07:50:36;;;;;;;28.40;15.13;;;5.50;70.70;;;;;;5086975;28;20183;-75
2022/03/05 07:53:02;;;;;;;28.07;14.00;;;5.00;72.40;;;;;;5088638;28;20210;-75
2022/03/05 07:55:27;;;;;;;23.70;15.23;;;4.50;73.90;;;;;;5088721;28;20198;-76
2022/03/05 07:57:53;;;;;;;25.40;14.87;;;4.60;76.30;;;;;;5089164;28;20438;-76
2022/03/05 08:00:19;;;;;;;21.87;13.80;;;4.80;76.20;;;;;;5088525;28;20606;-76
2022/03/05 08:02:44;;;;;;;23.70;13.90;;;4.70;75.80;;;;;;5087674;28;20293;-76
2022/03/05 08:05:10;;;;;;;27.20;14.90;;;4.80;76.90;;;;;;5068748;28;20329;-76
2022/03/05 08:07:35;;;;;;;23.90;13.63;;;5.20;76.50;;;;;;5087522;28;20530;-76
2022/03/05 08:10:01;;;;;;;23.00;12.87;;;5.60;74.80;;;;;;5087332;28;20816;-76
2022/03/05 08:12:27;;;;;;;21.97;13.80;;;5.80;72.40;;;;;;5087618;28;20225;-76
2022/03/05 08:14:53;;;;;;;24.30;14.23;;;5.90;72.00;;;;;;5068563;28;20428;-76
2022/03/05 08:17:18;;;;;;;24.60;13.87;;;6.30;72.60;;;;;;5085551;28;20212;-76
2022/03/05 08:19:44;;;;;;;20.73;12.50;;;6.70;69.90;;;;;;5087040;28;20636;-76
2022/03/05 08:22:09;;;;;;;22.60;13.00;;;6.70;68.80;;;;;;5086717;28;20210;-76
2022/03/05 08:24:35;;;;;;;19.93;13.27;;;6.50;70.90;;;;;;5087129;28;20558;-76
2022/03/05 08:27:01;;;;;;;21.50;13.90;;;6.90;71.10;;;;;;5085723;28;20210;-76
2022/03/05 08:29:26;;;;;;;20.63;12.47;;;7.20;67.10;;;;;;5087132;28;20190;-76
2022/03/05 08:31:52;;;;;;;27.80;13.63;;;7.00;67.30;;;;;;5085556;28;20209;-76
2022/03/05 08:34:17;;;;;;;21.43;13.13;;;7.60;66.40;;;;;;5086895;28;20225;-75
2022/03/05 08:36:43;;;;;;;27.50;13.90;;;7.80;66.60;;;;;;5085871;28;20734;-75
2022/03/05 08:39:09;;;;;;;20.67;12.17;;;7.50;63.60;;;;;;5068721;28;20195;-75
2022/03/05 08:41:34;;;;;;;20.63;12.50;;;6.90;66.20;;;;;;5068571;28;20217;-75
2022/03/05 08:44:00;;;;;;;19.90;12.23;;;6.30;67.50;;;;;;5090516;28;20191;-75
2022/03/05 08:46:26;;;;;;;20.83;12.73;;;7.30;69.30;;;;;;5089552;28;20695;-75
2022/03/05 08:48:52;;;;;;;20.87;12.67;;;7.30;64.50;;;;;;5090966;28;20190;-76
2022/03/05 08:51:17;;;;;;;19.93;12.40;;;6.90;65.10;;;;;;5090562;28;20522;-75
2022/03/05 08:53:43;;;;;;;20.37;12.57;;;7.30;65.60;;;;;;5090545;28;20675;-76
2022/03/05 08:56:09;;;;;;;20.80;13.23;;;7.40;63.40;;;;;;5090901;28;20197;-76
2022/03/05 08:58:35;;;;;;;20.80;12.40;;;8.10;64.30;;;;;;5089357;28;20192;-76
2022/03/05 09:01:01;;;;;;;50.67;13.63;;;8.70;61.40;;;;;;5089065;28;20960;-76
2022/03/05 09:03:27;;;;;;;20.57;13.40;;;8.40;60.80;;;;;;5089117;28;20285;-76
2022/03/05 09:05:53;;;;;;;20.80;10.90;;;7.60;61.60;;;;;;5090682;28;20848;-76
2022/03/05 09:08:19;;;;;;;21.00;12.17;;;7.60;62.20;;;;;;5090607;28;20430;-76
2022/03/05 09:10:45;;;;;;;17.83;11.40;;;7.50;61.00;;;;;;5090527;28;20202;-75
2022/03/05 09:13:11;;;;;;;20.20;11.17;;;8.10;61.70;;;;;;5090436;28;20410;-76
2022/03/05 09:15:38;;;;;;;29.27;10.53;;;8.10;62.00;;;;;;5090668;28;20416;-76
2022/03/05 09:18:04;;;;;;;17.80;11.33;;;9.00;58.90;;;;;;5090481;28;20423;-77
2022/03/05 09:20:30;;;;;;;17.53;11.20;;;9.00;57.60;;;;;;5090734;28;20508;-77
2022/03/05 09:22:56;;;;;;;17.00;10.57;;;9.30;55.70;;;;;;5090570;28;21040;-77
2022/03/05 09:25:22;;;;;;;19.33;11.10;;;8.40;55.20;;;;;;5090280;28;20470;-77
2022/03/05 09:27:48;;;;;;;16.97;11.37;;;9.20;56.70;;;;;;5090082;28;20551;-77
2022/03/05 09:30:14;;;;;;;14.30;9.20;;;10.00;53.40;;;;;;5090914;28;20920;-77
2022/03/05 09:32:39;;;;;;;12.67;9.47;;;10.20;50.80;;;;;;5088778;28;20209;-77
2022/03/05 09:35:06;;;;;;;14.20;9.50;;;9.90;50.30;;;;;;5072445;28;20920;-76
2022/03/05 09:37:33;;;;;;;14.87;9.67;;;9.50;49.70;;;;;;5090423;28;20192;-76
2022/03/05 09:39:59;;;;;;;12.80;9.80;;;8.90;51.60;;;;;;5090610;28;20426;-76
2022/03/05 09:42:25;;;;;;;16.20;10.27;;;9.60;50.70;;;;;;5088888;28;20444;-76
2022/03/05 09:44:51;;;;;;;19.43;10.20;;;9.40;50.20;;;;;;5091088;28;20182;-75
2022/03/05 09:47:17;;;;;;;16.53;10.80;;;9.40;50.50;;;;;;5089361;28;21205;-76
2022/03/05 09:49:43;;;;;;;13.00;8.70;;;9.80;50.40;;;;;;5072883;28;20426;-76
2022/03/05 09:52:09;;;;;;;11.60;7.73;;;9.00;48.00;;;;;;5088723;28;20237;-75
2022/03/05 09:54:36;;;;;;;12.17;8.37;;;9.40;48.20;;;;;;5088918;28;20201;-75
2022/03/05 09:57:07;;;;;;;12.87;7.80;;;10.00;46.60;;;;;;5089864;28;20429;-78
2022/03/05 09:59:33;;;;;;;9.80;6.60;;;9.70;46.90;;;;;;5088500;28;20918;-76
2022/03/05 10:01:58;;;;;;;15.53;6.57;;;8.60;45.80;;;;;;5088336;28;20455;-77
2022/03/05 10:04:25;;;;;;;11.17;7.50;;;9.10;45.80;;;;;;5070927;28;20191;-76
2022/03/05 10:07:16;;;;;;;9.03;6.70;;;8.90;46.60;;;;;;5088827;28;20460;-76
2022/03/05 10:09:46;;;;;;;9.77;6.90;;;9.60;44.90;;;;;;5092123;28;20506;-76
2022/03/05 10:12:25;;;;;;;9.40;6.77;;;10.10;43.80;;;;;;5088660;28;20967;-82
2022/03/05 10:15:12;;;;;;;6.87;5.30;;;10.00;41.90;;;;;;5089216;28;20415;-79
2022/03/05 10:17:56;;;;;;;9.20;6.00;;;11.10;42.10;;;;;;5090546;28;20461;-78
2022/03/05 10:20:30;;;;;;;9.70;6.03;;;11.20;40.10;;;;;;5087880;28;20512;-80
2022/03/05 10:23:05;;;;;;;8.20;6.00;;;10.30;39.90;;;;;;5091195;28;20416;-78
2022/03/05 10:25:43;;;;;;;7.03;4.90;;;9.60;41.50;;;;;;5090871;28;20468;-78
2022/03/05 10:28:15;;;;;;;6.97;4.60;;;9.30;41.20;;;;;;5072808;28;20454;-78
2022/03/05 10:30:58;;;;;;;7.70;5.87;;;8.80;40.70;;;;;;5072152;28;20463;-79
2022/03/05 10:33:26;;;;;;;7.30;5.40;;;8.60;41.90;;;;;;5088315;28;20991;-80
2022/03/05 10:35:53;;;;;;;8.77;6.40;;;9.30;42.50;;;;;;5071314;28;20438;-79
2022/03/05 10:38:19;;;;;;;7.03;5.40;;;9.50;42.40;;;;;;5089851;28;20450;-79
2022/03/05 10:40:53;;;;;;;7.93;5.90;;;9.60;42.00;;;;;;5089343;28;20441;-79
2022/03/05 10:43:19;;;;;;;8.73;5.33;;;10.20;41.30;;;;;;5088238;28;20424;-78
2022/03/05 10:45:58;;;;;;;9.13;5.40;;;10.30;41.00;;;;;;5089121;28;20467;-79
2022/03/05 10:48:25;;;;;;;7.73;5.80;;;10.80;40.10;;;;;;5072297;28;20524;-79
2022/03/05 10:51:09;;;;;;;9.30;6.03;;;11.30;39.70;;;;;;5088183;28;20432;-79
2022/03/05 10:53:48;;;;;;;9.23;6.57;;;11.30;38.90;;;;;;5087722;28;20436;-79
2022/03/05 10:56:26;;;;;;;8.90;5.43;;;11.30;38.00;;;;;;5087325;28;20937;-79
2022/03/05 10:59:12;;;;;;;12.87;7.37;;;12.20;38.10;;;;;;5088260;28;20432;-79
2022/03/05 11:01:43;;;;;;;14.60;8.90;;;12.10;35.90;;;;;;5088413;28;20443;-77
2022/03/05 11:04:11;;;;;;;9.43;7.10;;;12.80;36.90;;;;;;5089545;28;20432;-79
2022/03/05 11:06:39;;;;;;;9.43;6.83;;;11.60;35.70;;;;;;5087597;28;20551;-79
2022/03/05 11:09:07;;;;;;;12.60;7.20;;;11.80;36.90;;;;;;5088043;28;20430;-79
2022/03/05 11:11:37;;;;;;;9.00;6.80;;;10.40;36.30;;;;;;5089358;28;20443;-79
2022/03/05 11:14:04;;;;;;;14.33;6.67;;;10.20;37.70;;;;;;5090356;28;20417;-79
2022/03/05 11:16:30;;;;;;;8.90;7.07;;;10.70;38.90;;;;;;5088061;28;20418;-78
2022/03/05 11:18:56;;;;;;;14.00;6.90;;;10.20;37.70;;;;;;5088145;28;20854;-79
2022/03/05 11:21:24;;;;;;;7.63;6.20;;;9.80;39.30;;;;;;5087718;28;20437;-78
2022/03/05 11:23:51;;;;;;;8.50;6.30;;;10.30;38.70;;;;;;5086389;28;20917;-79
2022/03/05 11:26:17;;;;;;;12.40;6.20;;;11.10;38.20;;;;;;5086650;28;20549;-78
2022/03/05 11:28:48;;;;;;;8.70;6.67;;;11.00;38.00;;;;;;5087853;28;20439;-78
2022/03/05 11:31:19;;;;;;;9.70;6.83;;;11.60;37.20;;;;;;5087108;28;20447;-79
2022/03/05 11:33:46;;;;;;;11.57;6.83;;;11.20;37.20;;;;;;5087846;28;20426;-79
2022/03/05 11:36:25;;;;;;;11.10;7.87;;;11.60;37.50;;;;;;5088528;28;20448;-79
2022/03/05 11:39:20;;;;;;;10.13;7.17;;;11.00;37.70;;;;;;5086663;28;21050;-78
2022/03/05 11:41:53;;;;;;;10.40;7.63;;;11.00;38.30;;;;;;5086814;28;20442;-79
2022/03/05 11:44:21;;;;;;;10.13;7.03;;;10.50;37.40;;;;;;5087987;28;20417;-79
2022/03/05 11:46:48;;;;;;;12.50;7.67;;;10.10;37.50;;;;;;5086884;28;20992;-80
2022/03/05 11:49:14;;;;;;;10.40;7.10;;;10.30;38.70;;;;;;5086740;28;20421;-79
2022/03/05 11:51:58;;;;;;;12.30;8.13;;;10.90;39.20;;;;;;5087188;28;20474;-78
2022/03/05 11:54:25;;;;;;;10.93;7.70;;;10.30;37.50;;;;;;5086632;28;20444;-78
2022/03/05 11:57:08;;;;;;;10.83;7.87;;;11.00;38.30;;;;;;5086488;28;20432;-79
2022/03/05 11:59:36;;;;;;;11.80;8.90;;;10.80;37.70;;;;;;5086652;28;20421;-80
2022/03/05 12:02:02;;;;;;;12.70;8.20;;;10.70;37.70;;;;;;5070138;28;20864;-80
2022/03/05 12:04:29;;;;;;;9.40;7.40;;;11.20;39.00;;;;;;5069477;28;20430;-80
2022/03/05 12:07:04;;;;;;;9.47;7.37;;;11.70;38.30;;;;;;5096640;28;20471;-78
2022/03/05 12:09:54;;;;;;;9.83;7.63;;;11.60;37.70;;;;;;5104036;28;20419;-83
2022/03/05 12:12:20;;;;;;;11.47;8.00;;;11.60;36.60;;;;;;5084872;28;20447;-81
2022/03/05 12:14:58;;;;;;;11.50;7.83;;;11.90;36.90;;;;;;5092043;28;20518;-80
2022/03/05 12:17:24;;;;;;;11.40;8.03;;;12.20;37.70;;;;;;5092574;28;20424;-82
2022/03/05 12:19:50;;;;;;;12.77;9.33;;;12.20;37.10;;;;;;5093591;28;20945;-83
2022/03/05 12:22:16;;;;;;;12.07;7.97;;;12.60;37.10;;;;;;5094334;28;20450;-82
2022/03/05 12:24:42;;;;;;;11.67;8.70;;;12.20;36.40;;;;;;5077925;28;20950;-81
2022/03/05 12:27:13;;;;;;;13.70;8.40;;;12.50;36.60;;;;;;5077422;28;20470;-81
2022/03/05 12:29:50;;;;;;;12.97;8.57;;;12.40;36.30;;;;;;5094905;28;20423;-81
2022/03/05 12:32:16;;;;;;;12.83;8.23;;;12.30;35.80;;;;;;5076621;28;20443;-82
2022/03/05 12:34:41;;;;;;;11.70;8.10;;;12.60;36.10;;;;;;5095208;28;20917;-82
2022/03/05 12:37:10;;;;;;;11.70;8.90;;;13.10;37.10;;;;;;5059899;28;20439;-83
2022/03/05 12:39:43;;;;;;;10.73;7.43;;;13.30;35.80;;;;;;5076665;28;20195;-83